createdAt,value
2018-08-23T00:01:19.129Z,8.80
2018-08-23T00:03:47.301Z,6.47
2018-08-23T00:06:15.352Z,9.40
2018-08-23T00:08:48.592Z,9.80
2018-08-23T00:11:21.327Z,7.97
2018-08-23T00:13:50.519Z,4.47
2018-08-23T00:16:25.216Z,4.63
2018-08-23T00:18:53.664Z,8.87
2018-08-23T00:21:26.986Z,13.73
2018-08-23T00:24:14.027Z,6.93
2018-08-23T00:26:50.227Z,6.73
2018-08-23T00:29:22.598Z,9.87
2018-08-23T00:31:52.431Z,5.90
2018-08-23T00:34:21.759Z,8.67
2018-08-23T00:36:49.961Z,4.23
2018-08-23T00:39:18.220Z,7.77
2018-08-23T00:41:52.911Z,5.83
2018-08-23T00:44:26.011Z,10.47
2018-08-23T00:46:54.655Z,6.97
2018-08-23T00:49:26.076Z,5.27
2018-08-23T00:51:54.238Z,12.23
2018-08-23T00:54:22.302Z,6.47
2018-08-23T00:56:50.890Z,5.17
2018-08-23T00:59:19.007Z,7.80
2018-08-23T01:01:59.924Z,15.53
2018-08-23T01:04:29.277Z,9.10
2018-08-23T01:06:57.524Z,6.63
2018-08-23T01:09:25.766Z,7.47
2018-08-23T01:11:53.873Z,4.83
2018-08-23T01:14:21.962Z,11.97
2018-08-23T01:17:04.246Z,8.70
2018-08-23T01:19:39.417Z,5.70
2018-08-23T01:22:08.064Z,9.13
2018-08-23T01:24:36.713Z,5.93
2018-08-23T01:27:04.826Z,5.20
2018-08-23T01:29:32.950Z,7.90
2018-08-23T01:32:10.405Z,8.37
2018-08-23T01:34:38.536Z,6.20
2018-08-23T01:37:06.702Z,6.93
2018-08-23T01:39:35.014Z,8.97
2018-08-23T01:42:03.263Z,8.67
2018-08-23T01:44:37.880Z,13.47
2018-08-23T01:47:06.192Z,7.03
2018-08-23T01:49:34.400Z,6.70
2018-08-23T01:52:03.401Z,9.20
2018-08-23T01:54:31.483Z,9.33
2018-08-23T01:57:00.282Z,8.77
2018-08-23T01:59:28.408Z,8.27
2018-08-23T02:01:58.614Z,6.43
2018-08-23T02:04:26.774Z,18.03
2018-08-23T02:06:55.044Z,6.97
2018-08-23T02:09:23.458Z,3.73
2018-08-23T02:11:51.747Z,6.13
2018-08-23T02:14:20.336Z,6.50
2018-08-23T02:16:52.512Z,4.27
2018-08-23T02:19:21.493Z,9.03
2018-08-23T02:21:51.309Z,5.00
2018-08-23T02:24:23.682Z,4.70
2018-08-23T02:26:51.753Z,4.77
2018-08-23T02:29:29.981Z,6.87
2018-08-23T02:31:58.241Z,11.63
2018-08-23T02:34:30.596Z,9.60
2018-08-23T02:36:58.688Z,7.40
2018-08-23T02:39:26.792Z,5.07
2018-08-23T02:41:54.915Z,3.83
2018-08-23T02:44:23.154Z,9.23
2018-08-23T02:46:51.358Z,8.80
2018-08-23T02:49:19.690Z,3.60
2018-08-23T02:51:50.676Z,4.73
2018-08-23T02:54:18.870Z,6.43
2018-08-23T02:56:52.696Z,7.30
2018-08-23T02:59:20.807Z,5.40
2018-08-23T03:01:49.796Z,5.20
2018-08-23T03:04:22.165Z,8.20
2018-08-23T03:06:57.098Z,9.40
2018-08-23T03:09:31.942Z,6.90
2018-08-23T03:12:01.338Z,4.73
2018-08-23T03:14:31.139Z,4.40
2018-08-23T03:17:36.357Z,5.90
2018-08-23T03:20:14.640Z,8.17
2018-08-23T03:22:43.936Z,4.80
2018-08-23T03:25:14.264Z,8.93
2018-08-23T03:27:42.380Z,5.40
2018-08-23T03:30:12.005Z,7.10
2018-08-23T03:32:40.217Z,7.77
2018-08-23T03:35:08.394Z,4.73
2018-08-23T03:37:36.662Z,10.23
2018-08-23T03:40:05.273Z,6.30
2018-08-23T03:42:33.385Z,3.27
2018-08-23T03:45:01.712Z,10.37
2018-08-23T03:47:38.020Z,6.87
2018-08-23T03:50:06.999Z,5.93
2018-08-23T03:52:37.567Z,2.70
2018-08-23T03:55:08.260Z,8.17
2018-08-23T03:57:41.796Z,5.23
2018-08-23T04:00:10.009Z,10.70
2018-08-23T04:02:38.206Z,5.43
2018-08-23T04:05:12.988Z,12.03
2018-08-23T04:07:42.094Z,4.80
2018-08-23T04:10:10.234Z,7.13
2018-08-23T04:12:40.804Z,8.73
2018-08-23T04:15:20.308Z,9.30
2018-08-23T04:17:49.034Z,7.57
2018-08-23T04:20:17.410Z,5.43
2018-08-23T04:22:45.522Z,7.83
2018-08-23T04:25:13.918Z,5.90
2018-08-23T04:27:42.196Z,8.43
2018-08-23T04:30:10.625Z,5.07
2018-08-23T04:32:43.844Z,4.23
2018-08-23T04:35:15.054Z,5.37
2018-08-23T04:37:44.297Z,9.13
2018-08-23T04:40:15.262Z,8.97
2018-08-23T04:42:45.746Z,3.63
2018-08-23T04:45:19.259Z,7.53
2018-08-23T04:47:54.509Z,6.03
2018-08-23T04:50:23.908Z,8.03
2018-08-23T04:52:51.986Z,5.70
2018-08-23T04:55:21.540Z,14.23
2018-08-23T04:57:49.664Z,6.07
2018-08-23T05:00:17.825Z,8.70
2018-08-23T05:02:45.910Z,5.60
2018-08-23T05:05:14.322Z,10.93
2018-08-23T05:07:42.474Z,7.50
2018-08-23T05:10:10.842Z,5.50
2018-08-23T05:12:40.052Z,12.67
2018-08-23T05:15:09.826Z,7.40
2018-08-23T05:17:37.957Z,4.63
2018-08-23T05:20:06.314Z,8.97
2018-08-23T05:22:34.466Z,13.57
2018-08-23T05:25:11.038Z,4.60
2018-08-23T05:27:56.372Z,13.20
2018-08-23T05:30:26.643Z,9.17
2018-08-23T05:32:57.438Z,6.97
2018-08-23T05:35:25.546Z,6.53
2018-08-23T05:37:53.744Z,8.20
2018-08-23T05:40:21.872Z,18.37
2018-08-23T05:42:53.340Z,9.47
2018-08-23T05:45:28.174Z,7.23
2018-08-23T05:47:56.282Z,5.90
2018-08-23T05:50:30.788Z,8.87
2018-08-23T05:52:58.952Z,9.83
2018-08-23T05:55:27.094Z,20.07
2018-08-23T05:57:55.214Z,23.00
2018-08-23T06:00:23.382Z,9.07
2018-08-23T06:02:52.475Z,13.63
2018-08-23T06:05:20.655Z,10.20
2018-08-23T06:07:48.826Z,13.00
2018-08-23T06:10:16.958Z,7.50
2018-08-23T06:12:45.077Z,22.10
2018-08-23T06:15:13.186Z,30.13
2018-08-23T06:17:41.436Z,8.13
2018-08-23T06:20:09.719Z,6.80
2018-08-23T06:22:37.760Z,10.93
2018-08-23T06:25:07.408Z,8.37
2018-08-23T06:27:35.600Z,18.27
2018-08-23T06:30:03.994Z,12.30
2018-08-23T06:32:32.149Z,7.97
2018-08-23T06:35:01.477Z,9.33
2018-08-23T06:37:29.888Z,12.57
2018-08-23T06:39:58.069Z,10.40
2018-08-23T06:42:43.484Z,6.13
2018-08-23T06:45:12.090Z,7.37
2018-08-23T06:47:41.888Z,10.07
2018-08-23T06:50:10.823Z,8.13
2018-08-23T06:52:44.573Z,4.57
2018-08-23T06:55:15.360Z,10.53
2018-08-23T06:57:49.384Z,11.73
2018-08-23T07:00:23.400Z,10.73
2018-08-23T07:02:51.527Z,22.73
2018-08-23T07:05:20.279Z,11.93
2018-08-23T07:07:49.186Z,11.33
2018-08-23T07:10:17.333Z,10.77
2018-08-23T07:12:46.357Z,12.30
2018-08-23T07:15:14.493Z,9.73
2018-08-23T07:17:43.428Z,8.27
2018-08-23T07:20:12.287Z,8.07
2018-08-23T07:22:40.590Z,8.63
2018-08-23T07:25:13.500Z,10.03
2018-08-23T07:27:42.733Z,10.40
2018-08-23T07:30:14.498Z,10.43
2018-08-23T07:32:43.732Z,11.03
2018-08-23T07:35:13.202Z,7.17
2018-08-23T07:37:43.424Z,12.80
2018-08-23T07:40:13.626Z,18.47
2018-08-23T07:42:42.939Z,15.40
2018-08-23T07:45:11.575Z,14.67
2018-08-23T07:47:41.368Z,20.17
2018-08-23T07:50:09.590Z,8.33
2018-08-23T07:52:38.479Z,13.43
2018-08-23T07:55:07.386Z,11.63
2018-08-23T07:57:37.484Z,11.90
2018-08-23T08:00:36.138Z,18.27
2018-08-23T08:03:04.353Z,12.03
2018-08-23T08:05:35.415Z,15.47
2018-08-23T08:08:03.792Z,7.57
2018-08-23T08:10:36.529Z,8.47
2018-08-23T08:13:04.757Z,5.70
2018-08-23T08:15:33.141Z,6.40
2018-08-23T08:18:07.450Z,7.57
2018-08-23T08:20:35.575Z,8.30
2018-08-23T08:23:03.703Z,9.23
2018-08-23T08:25:32.645Z,13.73
2018-08-23T08:28:01.134Z,5.73
2018-08-23T08:30:40.293Z,7.70
2018-08-23T08:33:11.350Z,4.33
2018-08-23T08:35:42.098Z,12.10
2018-08-23T08:38:10.546Z,8.67
2018-08-23T08:40:38.700Z,9.13
2018-08-23T08:43:07.080Z,14.87
2018-08-23T08:45:35.248Z,13.20
2018-08-23T08:48:12.034Z,5.67
2018-08-23T08:50:45.837Z,9.60
2018-08-23T08:53:14.093Z,10.53
2018-08-23T08:55:42.901Z,10.30
2018-08-23T08:58:11.070Z,9.30
2018-08-23T09:00:49.878Z,5.33
2018-08-23T09:03:18.954Z,7.87
2018-08-23T09:05:47.092Z,5.50
2018-08-23T09:08:15.186Z,3.30
2018-08-23T09:10:43.354Z,7.40
2018-08-23T09:13:11.580Z,11.83
2018-08-23T09:15:39.756Z,5.00
2018-08-23T09:18:07.956Z,9.30
2018-08-23T09:20:36.257Z,6.93
2018-08-23T09:23:04.373Z,9.93
2018-08-23T09:25:37.831Z,9.20
2018-08-23T09:28:05.946Z,4.30
2018-08-23T09:30:35.514Z,7.60
2018-08-23T09:33:07.703Z,6.57
2018-08-23T09:35:36.433Z,8.37
2018-08-23T09:38:10.504Z,10.43
2018-08-23T09:40:38.810Z,10.33
2018-08-23T09:43:07.367Z,6.33
2018-08-23T09:45:36.377Z,5.20
2018-08-23T09:48:04.652Z,7.50
2018-08-23T09:50:32.998Z,6.97
2018-08-23T09:53:01.286Z,8.10
2018-08-23T09:55:31.357Z,7.27
2018-08-23T09:57:59.826Z,5.60
2018-08-23T10:02:40.974Z,3.77
2018-08-23T10:05:14.684Z,3.87
2018-08-23T10:07:48.510Z,5.60
2018-08-23T10:10:22.297Z,9.70
2018-08-23T10:12:56.012Z,4.03
2018-08-23T10:15:29.715Z,12.90
2018-08-23T10:18:03.428Z,7.13
2018-08-23T10:21:14.121Z,5.33
2018-08-23T10:23:42.250Z,7.50
2018-08-23T10:26:28.100Z,8.17
2018-08-23T10:28:56.868Z,6.67
2018-08-23T10:31:25.159Z,12.33
2018-08-23T10:33:54.409Z,7.07
2018-08-23T10:36:22.638Z,3.10
2018-08-23T10:38:50.862Z,3.43
2018-08-23T10:41:19.095Z,14.90
2018-08-23T10:43:48.327Z,6.93
2018-08-23T10:46:16.474Z,8.43
2018-08-23T10:48:44.752Z,4.93
2018-08-23T10:51:13.749Z,9.13
2018-08-23T10:53:41.884Z,10.20
2018-08-23T10:56:10.036Z,5.93
2018-08-23T10:58:39.599Z,5.10
2018-08-23T11:01:07.907Z,5.00
2018-08-23T11:03:36.093Z,11.00
2018-08-23T11:06:04.281Z,4.37
2018-08-23T11:08:35.298Z,10.50
2018-08-23T11:11:08.899Z,5.13
2018-08-23T11:13:42.578Z,6.17
2018-08-23T11:16:16.409Z,5.50
2018-08-23T11:18:50.153Z,5.63
2018-08-23T11:21:18.764Z,8.47
2018-08-23T11:23:47.454Z,6.03
2018-08-23T11:26:19.283Z,7.10
2018-08-23T11:28:47.883Z,7.17
2018-08-23T11:31:21.455Z,3.87
2018-08-23T11:33:49.549Z,4.40
2018-08-23T11:36:17.697Z,3.47
2018-08-23T11:38:45.872Z,4.07
2018-08-23T11:41:14.880Z,4.90
2018-08-23T11:43:43.275Z,6.53
2018-08-23T11:46:12.416Z,6.60
2018-08-23T11:48:41.665Z,6.87
2018-08-23T11:51:09.844Z,7.80
2018-08-23T11:53:38.346Z,5.83
2018-08-23T11:56:06.376Z,8.70
2018-08-23T11:58:34.576Z,4.23
2018-08-23T12:01:08.140Z,5.30
2018-08-23T12:03:37.136Z,8.10
2018-08-23T12:06:05.310Z,5.90
2018-08-23T12:08:33.476Z,7.63
2018-08-23T12:11:01.658Z,5.90
2018-08-23T12:13:29.907Z,14.90
2018-08-23T12:15:58.324Z,7.40
2018-08-23T12:18:32.703Z,6.83
2018-08-23T12:21:01.038Z,5.10
2018-08-23T12:23:29.182Z,8.83
2018-08-23T12:25:57.865Z,4.60
2018-08-23T12:28:31.564Z,6.30
2018-08-23T12:30:59.957Z,6.60
2018-08-23T12:33:28.268Z,7.60
2018-08-23T12:35:56.778Z,5.27
2018-08-23T12:38:30.209Z,4.77
2018-08-23T12:41:03.721Z,5.50
2018-08-23T12:43:42.428Z,6.83
2018-08-23T12:46:11.596Z,8.40
2018-08-23T12:48:39.984Z,5.70
2018-08-23T12:51:08.315Z,8.20
2018-08-23T12:53:36.648Z,8.17
2018-08-23T12:56:04.907Z,7.30
2018-08-23T12:58:33.136Z,6.27
2018-08-23T13:01:02.537Z,11.33
2018-08-23T13:03:30.732Z,7.30
2018-08-23T13:05:58.878Z,6.60
2018-08-23T13:08:27.036Z,5.00
2018-08-23T13:10:55.241Z,6.20
2018-08-23T13:13:23.365Z,6.10
2018-08-23T13:15:52.373Z,7.40
2018-08-23T13:18:20.538Z,4.93
2018-08-23T13:20:48.748Z,5.70
2018-08-23T13:23:16.922Z,7.73
2018-08-23T13:25:50.697Z,7.83
2018-08-23T13:28:19.297Z,6.13
2018-08-23T13:30:47.446Z,7.13
2018-08-23T13:33:15.630Z,12.63
2018-08-23T13:35:43.802Z,10.30
2018-08-23T13:38:11.932Z,8.10
2018-08-23T13:40:40.120Z,12.00
2018-08-23T13:43:08.456Z,9.23
2018-08-23T13:45:36.614Z,6.70
2018-08-23T13:48:05.650Z,16.43
2018-08-23T13:50:34.962Z,8.40
2018-08-23T13:53:03.206Z,7.50
2018-08-23T13:55:31.470Z,9.63
2018-08-23T13:57:59.748Z,7.77
2018-08-23T14:00:33.415Z,12.63
2018-08-23T14:03:01.556Z,10.60
2018-08-23T14:05:29.733Z,11.70
2018-08-23T14:07:57.846Z,24.53
2018-08-23T14:10:25.976Z,12.27
2018-08-23T14:12:54.163Z,10.70
2018-08-23T14:15:27.918Z,9.57
2018-08-23T14:17:56.797Z,10.20
2018-08-23T14:20:26.089Z,13.63
2018-08-23T14:22:54.365Z,11.30
2018-08-23T14:25:22.661Z,9.33
2018-08-23T14:27:51.436Z,11.20
2018-08-23T14:30:19.662Z,10.97
2018-08-23T14:32:47.926Z,9.80
2018-08-23T14:35:16.112Z,13.67
2018-08-23T14:37:44.384Z,19.10
2018-08-23T14:40:12.628Z,14.03
2018-08-23T14:42:40.906Z,20.13
2018-08-23T14:45:09.590Z,18.40
2018-08-23T14:47:43.263Z,16.87
2018-08-23T14:50:11.440Z,13.23
2018-08-23T14:52:39.625Z,14.53
2018-08-23T14:55:07.903Z,14.03
2018-08-23T14:57:37.311Z,17.67
2018-08-23T15:00:05.945Z,13.30
2018-08-23T15:02:34.115Z,18.80
2018-08-23T15:05:02.306Z,8.40
2018-08-23T15:07:30.510Z,9.70
2018-08-23T15:09:58.641Z,8.60
2018-08-23T15:12:26.809Z,10.70
2018-08-23T15:14:54.987Z,7.83
2018-08-23T15:17:24.355Z,6.43
2018-08-23T15:19:52.590Z,7.43
2018-08-23T15:22:20.741Z,8.20
2018-08-23T15:24:48.967Z,7.23
2018-08-23T15:27:17.176Z,5.10
2018-08-23T15:29:45.345Z,5.93
2018-08-23T15:32:13.561Z,6.57
2018-08-23T15:34:41.754Z,7.43
2018-08-23T15:37:10.116Z,12.77
2018-08-23T15:39:40.230Z,14.30
2018-08-23T15:42:08.624Z,14.97
2018-08-23T15:44:36.793Z,5.20
2018-08-23T15:47:05.571Z,5.90
2018-08-23T15:49:33.745Z,8.73
2018-08-23T15:52:01.924Z,4.80
2018-08-23T15:54:30.096Z,16.70
2018-08-23T15:56:58.306Z,9.60
2018-08-23T15:59:26.466Z,11.87
2018-08-23T16:01:55.585Z,4.07
2018-08-23T16:04:23.687Z,10.20
2018-08-23T16:06:51.850Z,4.13
2018-08-23T16:09:20.026Z,11.20
2018-08-23T16:11:48.198Z,6.97
2018-08-23T16:14:16.370Z,7.10
2018-08-23T16:16:49.813Z,6.10
2018-08-23T16:19:24.915Z,4.30
2018-08-23T16:21:57.128Z,4.83
2018-08-23T16:24:26.096Z,11.93
2018-08-23T16:26:59.634Z,13.80
2018-08-23T16:29:27.769Z,12.40
2018-08-23T16:31:56.050Z,6.80
2018-08-23T16:34:24.391Z,5.53
2018-08-23T16:36:52.600Z,5.70
2018-08-23T16:39:20.732Z,13.03
2018-08-23T16:41:48.928Z,11.63
2018-08-23T16:44:17.148Z,5.57
2018-08-23T16:46:45.321Z,18.27
2018-08-23T16:49:13.698Z,4.80
2018-08-23T16:51:41.971Z,9.40
2018-08-23T16:54:10.258Z,7.10
2018-08-23T16:56:38.369Z,14.53
2018-08-23T16:59:06.603Z,5.17
2018-08-23T17:01:34.849Z,6.87
2018-08-23T17:04:03.166Z,11.50
2018-08-23T17:06:31.298Z,10.10
2018-08-23T17:08:59.501Z,4.40
2018-08-23T17:11:27.647Z,6.47
2018-08-23T17:13:55.820Z,5.43
2018-08-23T17:16:29.430Z,6.83
2018-08-23T17:18:57.565Z,6.97
2018-08-23T17:21:25.764Z,6.50
2018-08-23T17:23:54.041Z,11.20
2018-08-23T17:26:22.183Z,7.30
2018-08-23T17:28:50.328Z,5.40
2018-08-23T17:31:18.529Z,5.30
2018-08-23T17:33:46.711Z,4.33
2018-08-23T17:36:16.075Z,10.70
2018-08-23T17:38:44.415Z,10.60
2018-08-23T17:41:12.695Z,15.90
2018-08-23T17:43:40.842Z,7.53
2018-08-23T17:46:09.118Z,3.83
2018-08-23T17:48:37.396Z,6.27
2018-08-23T17:51:05.734Z,7.83
2018-08-23T17:53:34.016Z,6.67
2018-08-23T17:56:02.188Z,12.10
2018-08-23T17:58:30.319Z,8.53
2018-08-23T18:00:58.706Z,8.63
2018-08-23T18:03:26.887Z,15.10
2018-08-23T18:05:55.908Z,9.73
2018-08-23T18:08:24.104Z,24.80
2018-08-23T18:10:52.445Z,17.97
2018-08-23T18:13:20.723Z,14.50
2018-08-23T18:15:54.295Z,30.63
2018-08-23T18:18:22.615Z,18.60
2018-08-23T18:20:50.881Z,21.23
2018-08-23T18:23:19.087Z,16.17
2018-08-23T18:25:47.257Z,17.47
2018-08-23T18:28:15.444Z,17.33
2018-08-23T18:30:45.302Z,14.30
2018-08-23T18:33:14.327Z,16.53
2018-08-23T18:35:42.513Z,20.53
2018-08-23T18:38:11.671Z,12.33
2018-08-23T18:40:41.045Z,14.93
2018-08-23T18:43:10.724Z,17.00
2018-08-23T18:45:38.855Z,7.33
2018-08-23T18:48:06.984Z,13.40
2018-08-23T18:50:35.309Z,22.63
2018-08-23T18:53:04.577Z,11.03
2018-08-23T18:55:32.753Z,11.33
2018-08-23T18:58:01.375Z,8.90
2018-08-23T19:00:29.685Z,10.20
2018-08-23T19:02:57.857Z,7.27
2018-08-23T19:05:26.028Z,7.90
2018-08-23T19:07:54.415Z,9.60
2018-08-23T19:10:22.615Z,10.43
2018-08-23T19:12:50.827Z,8.47
2018-08-23T19:15:24.671Z,11.80
2018-08-23T19:17:52.829Z,5.70
2018-08-23T19:20:21.007Z,7.80
2018-08-23T19:22:49.321Z,7.70
2018-08-23T19:25:17.750Z,14.90
2018-08-23T19:27:45.869Z,10.93
2018-08-23T19:30:14.559Z,9.40
2018-08-23T19:32:42.838Z,14.70
2018-08-23T19:35:10.979Z,7.50
2018-08-23T19:37:39.629Z,11.80
2018-08-23T19:40:08.747Z,11.70
2018-08-23T19:42:36.930Z,8.97
2018-08-23T19:45:08.507Z,17.53
2018-08-23T19:47:42.803Z,10.67
2018-08-23T19:50:12.680Z,11.30
2018-08-23T19:52:40.787Z,9.43
2018-08-23T19:55:09.648Z,14.83
2018-08-23T19:57:38.145Z,6.60
2018-08-23T20:00:07.602Z,5.93
2018-08-23T20:02:35.820Z,11.93
2018-08-23T20:05:04.366Z,10.13
2018-08-23T20:07:32.507Z,9.40
2018-08-23T20:10:01.142Z,12.50
2018-08-23T20:12:29.411Z,7.47
2018-08-23T20:14:57.465Z,7.53
2018-08-23T20:17:25.707Z,6.67
2018-08-23T20:19:55.067Z,8.40
2018-08-23T20:22:24.189Z,13.40
2018-08-23T20:24:53.896Z,9.23
2018-08-23T20:27:22.144Z,8.17
2018-08-23T20:29:50.945Z,9.33
2018-08-23T20:32:20.565Z,14.10
2018-08-23T20:34:50.110Z,9.97
2018-08-23T20:37:18.290Z,13.03
2018-08-23T20:39:46.411Z,8.87
2018-08-23T20:42:15.711Z,13.03
2018-08-23T20:44:43.819Z,9.90
2018-08-23T20:47:12.016Z,12.10
2018-08-23T20:49:40.177Z,12.33
2018-08-23T20:52:09.625Z,9.90
2018-08-23T20:54:37.738Z,13.50
2018-08-23T20:57:05.991Z,15.50
2018-08-23T20:59:34.484Z,10.63
2018-08-23T21:02:02.627Z,9.23
2018-08-23T21:04:30.795Z,8.70
2018-08-23T21:06:59.070Z,10.00
2018-08-23T21:09:27.275Z,21.23
2018-08-23T21:11:55.448Z,21.27
2018-08-23T21:14:23.691Z,14.20
2018-08-23T21:16:52.147Z,10.23
2018-08-23T21:19:20.297Z,19.23
2018-08-23T21:21:48.484Z,21.43
2018-08-23T21:24:17.708Z,20.00
2018-08-23T21:26:45.869Z,16.20
2018-08-23T21:29:14.212Z,13.30
2018-08-23T21:31:42.393Z,11.50
2018-08-23T21:34:10.813Z,12.20
2018-08-23T21:36:38.984Z,13.67
2018-08-23T21:39:10.452Z,9.90
2018-08-23T21:41:38.586Z,10.23
2018-08-23T21:44:06.746Z,14.47
2018-08-23T21:46:35.576Z,8.73
2018-08-23T21:49:04.563Z,16.10
2018-08-23T21:51:32.695Z,15.50
2018-08-23T21:54:00.895Z,8.90
2018-08-23T21:56:29.022Z,11.33
2018-08-23T21:58:57.788Z,11.30
2018-08-23T22:01:26.939Z,10.53
2018-08-23T22:03:55.065Z,11.67
2018-08-23T22:06:23.703Z,14.57
2018-08-23T22:08:51.987Z,12.73
2018-08-23T22:11:20.220Z,17.90
2018-08-23T22:13:48.340Z,9.80
2018-08-23T22:16:16.612Z,10.17
2018-08-23T22:18:44.738Z,15.80
2018-08-23T22:21:12.846Z,10.40
2018-08-23T22:23:41.611Z,11.47
2018-08-23T22:26:09.753Z,12.50
2018-08-23T22:28:38.061Z,14.23
2018-08-23T22:31:06.152Z,16.20
2018-08-23T22:33:35.461Z,20.93
2018-08-23T22:36:03.677Z,12.60
2018-08-23T22:38:32.036Z,13.27
2018-08-23T22:41:00.241Z,13.70
2018-08-23T22:43:28.434Z,15.03
2018-08-23T22:45:56.659Z,12.70
2018-08-23T22:48:26.129Z,13.97
2018-08-23T22:50:55.467Z,20.23
2018-08-23T22:53:23.681Z,15.53
2018-08-23T22:55:52.536Z,13.53
2018-08-23T22:58:20.802Z,12.90
2018-08-23T23:00:49.058Z,14.67
2018-08-23T23:03:22.556Z,16.43
2018-08-23T23:05:50.846Z,12.30
2018-08-23T23:08:18.988Z,11.30
2018-08-23T23:10:48.105Z,12.43
2018-08-23T23:13:16.204Z,17.10
2018-08-23T23:15:44.478Z,11.30
2018-08-23T23:18:14.580Z,14.30
2018-08-23T23:20:42.920Z,15.17
2018-08-23T23:23:11.143Z,10.30
2018-08-23T23:25:39.342Z,13.40
2018-08-23T23:28:07.502Z,12.27
2018-08-23T23:30:36.102Z,14.03
2018-08-23T23:33:04.266Z,18.07
2018-08-23T23:35:32.374Z,23.80
2018-08-23T23:38:01.909Z,38.83
2018-08-23T23:40:30.045Z,92.10
2018-08-23T23:42:58.166Z,84.23
2018-08-23T23:45:26.330Z,106.90
2018-08-23T23:47:54.638Z,100.33
2018-08-23T23:50:23.058Z,99.20
2018-08-23T23:52:51.182Z,94.07
2018-08-23T23:55:19.350Z,108.27
2018-08-23T23:57:47.526Z,92.97
